Pagina principale
METAR-TAF:

METAR-TAF

Aeroporti :

Brescia Ghedi, Italia

Aeroporto di Brescia-Ghedi

latitudine: 45-25N, longitudine: 010-17E, altezza: 102 m

Osservazione

Il bollettino è stato emesso 1 ora e 17 minuti fa, alle 06:55 UTC
Temperature 22°C
Umidità 60%
Pressione 1020 hPa
Visibilità 10 km o più
Nuvoloso ad un'altezza di 7000 ft

METAR: LIPL 270655Z /////KT 9999 BKN070 22/14 Q1020 RMK BKN VIS MIN 9999 WIND THR31 08004KT BLU

Ora: 10:12 (08:12 UTC)

Previsione

Il bollettino è stato emesso 3 ore e 12 minuti fa, alle 05:00 UTC
Previsione valida dal 27 alle 06 UTC al 27 alle 15 UTC
Vento 4 kt da direzioni variabili
Visibilità 10 km o più
Poco nuvoloso ad un'altezza di 7000 ft

TAF: LIPL 270500Z 2706/2715 VRB04KT 9999 FEW070

Osservazioni e previsioni meteorologiche di più di 4000 aeroporti (messaggi METAR e TAF).

Le stazioni disponibili sono rappresentate dai dischi gialli e rossi sulla carta.

Puntare il mouse per vedere il nome della stazione.

Clicca sopra per visualizzare le osservazioni e previsioni meteorologiche.

Per cambiare la mappa : fare clic sui pulsanti verdi con una croce nera per ingrandire, il pulsante verde con un trattino per diminuire, o sulla freccia verde per le mappe adiacenti.


METAR-TAF: